Flight Track Log - Related Links

Times and Time Zones

All times are in EDT time to prevent confusion due to time zone crossing. See the DAL1515 flight status page for this flight to view local times or setup timezone preferences in your user account.

Time Position Orientation Groundspeed Altitude Reporting Facility
EDT Latitude Longitude Course Direction KTS MPH feet Rate Location/Type
Thu 09:31:33 PM 33.6517 -84.4806 North 450 518 2,300  Level Atlanta Center
Thu 09:32:33 PM 33.6847 -84.5606 296° West 361 415 4,200 2,200 Climbing Atlanta Center
Thu 09:33:33 PM 33.7450 -84.5858 341° North 238 274 6,700 2,500 Climbing Atlanta Center
Thu 09:34:00 PM 33.9084 -84.2418 320° Northwest  Level FlightAware Approximate
Thu 09:34:33 PM 33.8244 -84.5614 14° North 278 320 9,200  Level Atlanta Center
Thu 09:35:00 PM 34.0164 -84.2667 North  Level FlightAware Approximate
Thu 09:35:33 PM 33.8558 -84.5117 53° Northeast 310 357 11,300  Level Atlanta Center
Thu 09:36:00 PM 34.1318 -84.2667 North  Level FlightAware Approximate
Thu 09:36:33 PM 33.9272 -84.4194 47° Northeast 324 373 12,500  Level Atlanta Center
Thu 09:37:00 PM 34.2472 -84.2667 North  Level FlightAware Approximate
Thu 09:37:33 PM 34.0192 -84.3722 23° Northeast 350 403 13,500  Level Atlanta Center
Thu 09:38:33 PM 34.1300 -84.3375 15° North 380 437 15,500 2,000 Climbing Atlanta Center
Thu 09:39:33 PM 34.2469 -84.2978 16° North 397 457 17,500 2,150 Climbing Atlanta Center
Thu 09:40:33 PM 34.3575 -84.2653 14° North 397 457 19,800 2,150 Climbing Atlanta Center
Thu 09:41:33 PM 34.4661 -84.2403 11° North 403 464 21,800 1,950 Climbing Atlanta Center
Thu 09:42:33 PM 34.5789 -84.2128 11° North 403 464 23,700 1,350 Climbing Atlanta Center
Thu 09:43:33 PM 34.6750 -84.1928 10° North 393 452 24,500 900 Climbing Atlanta Center
Thu 09:44:33 PM 34.7939 -84.1653 11° North 400 460 25,500 1,150 Climbing Atlanta Center
Thu 09:45:33 PM 34.9086 -84.1375 11° North 416 479 26,800 1,350 Climbing Atlanta Center
Thu 09:46:33 PM 35.0256 -84.1072 12° North 421 484 28,200 1,100 Climbing Atlanta Center
Thu 09:47:33 PM 35.1444 -84.0794 11° North 426 490 29,000 1,000 Climbing Atlanta Center
Thu 09:48:33 PM 35.2614 -84.0489 12° North 431 496 30,200 1,100 Climbing Atlanta Center
Thu 09:49:33 PM 35.3783 -84.0208 11° North 431 496 31,200 1,000 Climbing Atlanta Center
Thu 09:50:33 PM 35.4972 -83.9928 11° North 431 496 32,200 900 Climbing Atlanta Center
Thu 09:51:33 PM 35.6119 -83.9672 10° North 431 496 33,000 400 Climbing Atlanta Center
Thu 09:52:33 PM 35.7308 -83.9364 12° North 431 496 33,000  Level Atlanta Center
Thu 09:53:33 PM 35.8475 -83.9081 11° North 431 496 33,000  Level Atlanta Center
Thu 09:54:33 PM 35.9622 -83.8592 19° North 426 490 33,000  Level Atlanta Center
Thu 09:55:33 PM 36.0706 -83.7922 27° Northeast 426 490 33,000  Level Atlanta Center
Thu 09:56:34 PM 36.1761 -83.7208 29° Northeast 439 505 33,000  Level Indianapolis Center
Thu 09:57:35 PM 36.2839 -83.6514 27° Northeast 439 505 33,000  Level Indianapolis Center
Thu 09:58:36 PM 36.4144 -83.5675 27° Northeast 440 506 33,000  Level Indianapolis Center
Thu 09:59:37 PM 36.5253 -83.4986 27° Northeast 440 506 33,000  Level Indianapolis Center
Thu 10:00:39 PM 36.6347 -83.4278 27° Northeast 440 506 33,000  Level Indianapolis Center
Thu 10:01:40 PM 36.7339 -83.3358 37° Northeast 442 509 33,000  Level Indianapolis Center
Thu 10:02:41 PM 36.8328 -83.2431 37° Northeast 440 506 33,000  Level Indianapolis Center
Thu 10:03:43 PM 36.9294 -83.1525 37° Northeast 430 495 33,000  Level Indianapolis Center
Thu 10:04:44 PM 37.0281 -83.0608 37° Northeast 435 501 33,000  Level Indianapolis Center
Thu 10:05:45 PM 37.1247 -82.9675 38° Northeast 431 496 33,000  Level Indianapolis Center
Thu 10:06:46 PM 37.2183 -82.8761 38° Northeast 423 487 33,000  Level Indianapolis Center
Thu 10:07:48 PM 37.3128 -82.7858 37° Northeast 424 488 33,000  Level Indianapolis Center
Thu 10:08:49 PM 37.4058 -82.6958 38° Northeast 421 484 33,000  Level Indianapolis Center
Thu 10:09:50 PM 37.4972 -82.6069 38° Northeast 414 476 33,000 393 Level Indianapolis Center
Thu 10:10:51 PM 37.5886 -82.5181 38° Northeast 414 476 33,800 738 Climbing Indianapolis Center
Thu 10:11:52 PM 37.6786 -82.4292 38° Northeast 411 473 34,500 537 Climbing Indianapolis Center
Thu 10:12:54 PM 37.7689 -82.3417 37° Northeast 407 468 34,900 244 Climbing Indianapolis Center
Thu 10:13:55 PM 37.8656 -82.2283 43° Northeast 405 466 35,000 49 Climbing Indianapolis Center
Thu 10:14:56 PM 37.9419 -82.1294 46° Northeast 414 476 35,000  Level Indianapolis Center
Thu 10:15:57 PM 38.0222 -82.0258 45° Northeast 413 475 35,000  Level Indianapolis Center
Thu 10:16:58 PM 38.1025 -81.9217 46° Northeast 413 475 35,000  Level Indianapolis Center
Thu 10:17:59 PM 38.1828 -81.8183 45° Northeast 411 473 35,000  Level Indianapolis Center
Thu 10:19:00 PM 38.2600 -81.7156 46° Northeast 404 465 35,000  Level Indianapolis Center
Thu 10:20:01 PM 38.3375 -81.6136 46° Northeast 403 464 35,000  Level Indianapolis Center
Thu 10:21:02 PM 38.4144 -81.5103 46° Northeast 403 464 35,000  Level Indianapolis Center
Thu 10:22:03 PM 38.5056 -81.3867 47° Northeast 404 465 35,000  Level Indianapolis Center
Thu 10:23:04 PM 38.5811 -81.2839 47° Northeast 402 463 35,000  Level Indianapolis Center
Thu 10:24:05 PM 38.6575 -81.1839 46° Northeast 398 458 35,000  Level Indianapolis Center
Thu 10:25:06 PM 38.7328 -81.0822 46° Northeast 394 453 35,000  Level Indianapolis Center
Thu 10:26:07 PM 38.8075 -80.9800 47° Northeast 395 455 35,000  Level Indianapolis Center
Thu 10:27:09 PM 38.8822 -80.8792 46° Northeast 392 451 35,000  Level Indianapolis Center
Thu 10:28:10 PM 38.9569 -80.7775 47° Northeast 392 451 35,000  Level Indianapolis Center
Thu 10:29:11 PM 39.0306 -80.6756 47° Northeast 389 448 35,000  Level Indianapolis Center
Thu 10:30:12 PM 39.1053 -80.5733 47° Northeast 391 450 35,000  Level Indianapolis Center
Thu 10:31:13 PM 39.1956 -80.4531 46° Northeast 391 450 35,000  Level Indianapolis Center
Thu 10:32:14 PM 39.2683 -80.3522 47° Northeast 385 443 35,000  Level Indianapolis Center
Thu 10:33:15 PM 39.3431 -80.2503 47° Northeast 389 448 35,000  Level Indianapolis Center
Thu 10:34:16 PM 39.4158 -80.1483 47° Northeast 386 444 35,000  Level Indianapolis Center
Thu 10:35:18 PM 39.4889 -80.0469 47° Northeast 385 443 35,000  Level Indianapolis Center
Thu 10:36:19 PM 39.5625 -79.9469 46° Northeast 384 442 35,000  Level Indianapolis Center
Thu 10:37:20 PM 39.6344 -79.8439 48° Northeast 385 443 35,000  Level Indianapolis Center
Thu 10:38:21 PM 39.7072 -79.7414 47° Northeast 386 444 35,000  Level Indianapolis Center
Thu 10:39:30 PM 39.8025 -79.6131 46° Northeast 373 429 35,000  Level Cleveland Center
Thu 10:40:30 PM 39.8744 -79.5092 48° Northeast 373 429 35,000  Level Cleveland Center
Thu 10:41:30 PM 39.9464 -79.4078 47° Northeast 373 429 35,000  Level Cleveland Center
Thu 10:42:30 PM 40.0183 -79.3036 48° Northeast 373 429 35,000  Level Cleveland Center
Thu 10:43:30 PM 40.0858 -79.2019 49° Northeast 373 429 35,000  Level Cleveland Center
Thu 10:44:30 PM 40.1597 -79.0972 47° Northeast 373 429 35,000  Level Cleveland Center
Thu 10:45:30 PM 40.2333 -78.9922 47° Northeast 373 429 35,000  Level Cleveland Center
Thu 10:46:30 PM 40.3028 -78.8897 48° Northeast 373 429 35,000  Level Cleveland Center
Thu 10:47:30 PM 40.3742 -78.7872 48° Northeast 373 429 35,000  Level Cleveland Center
Thu 10:48:30 PM 40.4453 -78.6842 48° Northeast 373 429 35,000  Level Cleveland Center
Thu 10:49:31 PM 40.5186 -78.5839 46° Northeast 373 429 35,000  Level Cleveland Center
Thu 10:50:30 PM 40.5878 -78.4833 48° Northeast 373 429 35,000  Level Cleveland Center
Thu 10:52:44 PM 40.7389 -78.2625 48° Northeast 383 441 35,000  Level New York Center
Thu 10:53:44 PM 40.8078 -78.1606 48° Northeast 383 441 35,000 -200 Level New York Center
Thu 10:54:44 PM 40.8769 -78.0553 49° Northeast 378 435 34,600 -1,750 Descending New York Center
Thu 10:55:44 PM 40.9458 -77.9500 49° Northeast 378 435 31,500 -3,250 Descending New York Center
Thu 10:56:44 PM 41.0256 -77.8372 47° Northeast 399 459 28,100 -2,050 Descending New York Center
Thu 10:57:44 PM 41.1103 -77.7111 48° Northeast 428 493 27,400 -550 Descending New York Center
Thu 10:58:44 PM 41.1919 -77.5928 47° Northeast 440 506 27,000 -200 Descending New York Center
Thu 10:59:44 PM 41.2831 -77.4583 48° Northeast 445 512 27,000  Level New York Center
Thu 11:00:44 PM 41.3647 -77.3392 48° Northeast 445 512 27,000  Level New York Center
Thu 11:01:44 PM 41.4308 -77.2375 49° Northeast 445 512 27,000  Level New York Center
Thu 11:02:44 PM 41.5303 -77.0892 48° Northeast 445 512 27,000  Level New York Center
Thu 11:03:44 PM 41.6117 -76.9664 48° Northeast 445 512 27,000  Level New York Center
Thu 11:04:44 PM 41.6953 -76.8408 48° Northeast 445 512 27,000  Level New York Center
Thu 11:07:04 PM 41.8878 -76.5539 48° Northeast 447 514 27,000 -420 Level Boston Center
Thu 11:08:04 PM 41.9672 -76.4333 48° Northeast 442 509 25,600 -1,000 Descending Boston Center
Thu 11:09:04 PM 42.0444 -76.3153 49° Northeast 437 503 25,000 -793 Descending Boston Center
Thu 11:10:05 PM 42.1236 -76.1942 49° Northeast 432 497 24,000 -492 Descending Boston Center
Thu 11:11:06 PM 42.1883 -76.0636 56° Northeast 432 497 24,000  Level Boston Center
Thu 11:12:06 PM 42.2367 -75.9147 66° East 421 484 24,000  Level Boston Center
Thu 11:13:04 PM 42.2847 -75.7714 66° East 421 484 24,000  Level Boston Center
Thu 11:14:05 PM 42.3347 -75.6308 64° Northeast 415 478 24,000  Level Boston Center
Thu 11:15:05 PM 42.3867 -75.4844 64° Northeast 415 478 24,000  Level Boston Center
Thu 11:16:05 PM 42.4342 -75.3378 66° East 415 478 24,000 -900 Level Boston Center
Thu 11:17:05 PM 42.4775 -75.1961 67° East 410 472 22,200 -2,150 Descending Boston Center
Thu 11:18:05 PM 42.5081 -75.0511 74° East 405 466 19,700 -2,380 Descending Boston Center
Thu 11:19:06 PM 42.5342 -74.9083 76° East 394 453 17,400 -2,350 Descending Boston Center
Thu 11:20:05 PM 42.5622 -74.7658 75° East 394 453 15,000 -2,250 Descending Boston Center
Thu 11:21:06 PM 42.5853 -74.6425 76° East 388 447 12,900 -2,168 Descending Boston Center
Thu 11:22:04 PM 42.6214 -74.5028 71° East 362 417 10,700 -1,373 Descending Boston Center
Thu 11:23:04 PM 42.6503 -74.4019 69° East 331 381 10,200 -1,091 Descending Boston Center
Thu 11:24:05 PM 42.6833 -74.2900 68° East 291 335 8,500 -1,664 Descending Boston Center
Thu 11:25:03 PM 42.7097 -74.1975 69° East 286 329 6,900 -1,513 Descending Boston Center
Thu 11:26:04 PM 42.7428 -74.0883 68° East 291 335 5,500 -1,171 Descending Boston Center
Thu 11:27:06 PM 42.7750 -74.0128 60° Northeast 268 308 4,500 -1,140 Descending Boston Center
Thu 11:28:05 PM 42.8158 -73.9289 56° Northeast 256 295 3,200 -769 Descending Boston Center
Thu 11:29:03 PM 42.8525 -73.8364 62° Northeast 256 295 3,000 -876 Descending Boston Center
Thu 11:30:22 PM 42.8006 -73.8097 159° South 121 139 1,200 -1,071 Descending Boston Center
Thu 11:31:23 PM 42.7653 -73.8061 176° South 128 147 500 -689 Descending Boston Center

Login

Don't have an account? Register now (free) for customized features, flight alerts, and more!